Gelius 2 — UGJP — position and weather

sailwx.info

Track history (hours):
 
Tides and Currents Weather Stations Pressure Air Temp Water Temp Dewpoint Dewpoint Depression Visibility Wind Speed Wind Dir Waves Ship Positions

Gelius 2

Last reported at 2017-Nov-24 09:17 UTC. Time now 2017-Dec-13 20:52 UTC.
Position N 45°04' E 036°30'.
Warning: this ship's position is 19 days out of date.

Length 90 m; draft 4.1 m.

Type: Cargo ship. MMSI: 273358650.

Date/timePositionNaut miles runAvg speedWind from/ knotsBaromVisibWave heightAir tempDewpointWater temp
2017-Nov-24 09:17N 45°04' E 036°30'2 8.2
2017-Nov-24 08:59N 45°07' E 036°30'4 8.0
2017-Nov-24 08:30N 45°11' E 036°28'4 8.2
2017-Nov-24 08:00N 45°15' E 036°28'4 7.1
2017-Nov-24 07:30N 45°18' E 036°29'4 8.6
2017-Nov-24 07:00N 45°20' E 036°35'4 8.3
2017-Nov-24 06:30N 45°22' E 036°40'4 8.1
2017-Nov-24 06:00N 45°26' E 036°41'4 8.4
2017-Nov-24 05:30N 45°30' E 036°43'4 8.4
2017-Nov-24 04:59N 45°34' E 036°46'  
2017-Nov-19 23:43N 45°12' E 036°30'0 0.0
2017-Nov-19 23:19N 45°12' E 036°30'0 0.0
2017-Nov-19 22:58N 45°12' E 036°30'0 0.4
2017-Nov-19 21:47N 45°11' E 036°30'  
2017-Nov-17 16:42N 41°00' E 028°60'1 6.6
2017-Nov-17 16:30N 40°59' E 028°60'2 3.8
2017-Nov-17 15:56N 40°57' E 028°60'1 2.4
2017-Nov-17 15:28N 40°56' E 028°60'2 4.6
2017-Nov-17 14:57N 40°54' E 028°57'2 4.6
2017-Nov-17 14:25N 40°52' E 028°56'1 1.9
2017-Nov-17 14:00N 40°51' E 028°55'0 0.1
2017-Nov-17 13:28N 40°51' E 028°55'  
Track history (hours):
 
Tides and Currents Weather Stations Pressure Air Temp Water Temp Dewpoint Dewpoint Depression Visibility Wind Speed Wind Dir Waves Ship Positions

Gelius 2

Last reported at 2017-Nov-24 09:17 UTC. Time now 2017-Dec-13 20:52 UTC.
Position N 45°04' E 036°30'.
Warning: this ship's position is 19 days out of date.

Length 90 m; draft 4.1 m.

Type: Cargo ship. MMSI: 273358650.

Date/timePositionNaut miles runAvg speedWind from/ knotsBaromVisibWave heightAir tempDewpointWater temp
2017-Nov-24 09:17N 45°04' E 036°30'2 8.2
2017-Nov-24 08:59N 45°07' E 036°30'4 8.0
2017-Nov-24 08:30N 45°11' E 036°28'4 8.2
2017-Nov-24 08:00N 45°15' E 036°28'4 7.1
2017-Nov-24 07:30N 45°18' E 036°29'4 8.6
2017-Nov-24 07:00N 45°20' E 036°35'4 8.3
2017-Nov-24 06:30N 45°22' E 036°40'4 8.1
2017-Nov-24 06:00N 45°26' E 036°41'4 8.4
2017-Nov-24 05:30N 45°30' E 036°43'4 8.4
2017-Nov-24 04:59N 45°34' E 036°46'  
2017-Nov-19 23:43N 45°12' E 036°30'0 0.0
2017-Nov-19 23:19N 45°12' E 036°30'0 0.0
2017-Nov-19 22:58N 45°12' E 036°30'0 0.4
2017-Nov-19 21:47N 45°11' E 036°30'  
2017-Nov-17 16:42N 41°00' E 028°60'1 6.6
2017-Nov-17 16:30N 40°59' E 028°60'2 3.8
2017-Nov-17 15:56N 40°57' E 028°60'1 2.4
2017-Nov-17 15:28N 40°56' E 028°60'2 4.6
2017-Nov-17 14:57N 40°54' E 028°57'2 4.6
2017-Nov-17 14:25N 40°52' E 028°56'1 1.9
2017-Nov-17 14:00N 40°51' E 028°55'0 0.1
2017-Nov-17 13:28N 40°51' E 028°55'  

Dump ship's entire track history